Time;durP1;ratioP1;P1;durP2;ratioP2;P2;SDS_P1;SDS_P2;PMS_P1;PMS_P2;Temp;Humidity;BMP_temperature;BMP_pressure;BME280_temperature;BME280_humidity;BME280_pressure;Samples;Min_cycle;Max_cycle;Signal;HPM_P1;HPM_P2
2023/03/08 00:01:58;;;;;;;31.70;20.20;;;;;;;1.32;68.07;99450.80;107983;1256;74875;-63
2023/03/08 00:04:26;;;;;;;34.60;21.10;;;;;;;1.30;68.08;99451.12;107936;1254;61083;-62
2023/03/08 00:06:55;;;;;;;30.60;19.80;;;;;;;1.30;68.09;99447.27;107934;1255;61898;-62
2023/03/08 00:09:24;;;;;;;31.90;19.90;;;;;;;1.31;67.96;99440.23;108025;1255;75753;-64
2023/03/08 00:11:52;;;;;;;32.90;21.20;;;;;;;1.29;68.17;99436.34;107988;1255;73856;-62
2023/03/08 00:14:21;;;;;;;33.40;21.40;;;;;;;1.27;68.30;99435.41;107960;1259;71766;-62
2023/03/08 00:16:49;;;;;;;36.40;22.00;;;;;;;1.29;68.35;99429.41;107993;1255;61097;-62
2023/03/08 00:19:18;;;;;;;33.50;21.90;;;;;;;1.31;68.53;99428.56;107964;1254;61260;-65
2023/03/08 00:21:46;;;;;;;34.40;21.70;;;;;;;1.34;68.43;99422.85;107994;1257;75310;-63
2023/03/08 00:24:16;;;;;;;34.60;22.50;;;;;;;1.38;68.51;99414.59;107943;1255;71852;-63
2023/03/08 00:26:46;;;;;;;31.90;20.80;;;;;;;1.38;68.64;99411.06;107864;1259;72311;-63
2023/03/08 00:29:14;;;;;;;35.20;23.50;;;;;;;1.36;68.52;99413.86;108002;1254;61083;-63
2023/03/08 00:31:43;;;;;;;32.70;21.30;;;;;;;1.37;68.82;99413.67;108071;1254;61348;-62
2023/03/08 00:34:12;;;;;;;33.80;22.30;;;;;;;1.43;68.94;99411.92;108052;1259;75907;-63
2023/03/08 00:36:44;;;;;;;32.10;22.20;;;;;;;1.51;69.00;99412.93;107978;1254;74209;-64
2023/03/08 00:39:15;;;;;;;32.90;21.30;;;;;;;1.61;69.13;99422.53;107994;1260;73425;-64
2023/03/08 00:41:43;;;;;;;34.00;22.10;;;;;;;1.72;69.37;99409.30;108031;1254;61246;-65
2023/03/08 00:44:12;;;;;;;33.60;21.70;;;;;;;1.82;69.36;99403.83;107998;1254;61345;-65
2023/03/08 00:46:40;;;;;;;33.40;21.20;;;;;;;1.92;69.47;99399.62;107964;1254;74805;-63
2023/03/08 00:49:09;;;;;;;34.80;22.20;;;;;;;2.03;69.64;99400.98;108044;1254;72323;-63
2023/03/08 00:51:38;;;;;;;31.80;21.50;;;;;;;2.11;69.55;99395.00;107922;1259;72435;-63
2023/03/08 00:54:07;;;;;;;32.80;21.10;;;;;;;2.21;69.71;99386.42;107956;1254;61058;-63
2023/03/08 00:56:36;;;;;;;30.80;20.80;;;;;;;2.29;69.54;99384.90;108090;1254;61135;-62
2023/03/08 00:59:04;;;;;;;31.00;21.20;;;;;;;2.32;69.55;99383.80;108010;1254;75846;-64
2023/03/08 01:01:33;;;;;;;29.50;19.60;;;;;;;2.32;69.52;99367.04;108008;1254;72807;-63
2023/03/08 01:04:02;;;;;;;30.90;21.80;;;;;;;2.29;69.33;99372.15;108059;1254;73067;-63
2023/03/08 01:06:32;;;;;;;31.60;21.10;;;;;;;2.30;69.38;99383.51;108107;1254;61300;-62
2023/03/08 01:09:01;;;;;;;32.20;21.10;;;;;;;2.37;69.69;99380.38;108094;1254;61323;-63
2023/03/08 01:11:32;;;;;;;34.90;21.30;;;;;;;2.44;69.56;99375.13;108017;1254;74578;-63
2023/03/08 01:14:00;;;;;;;31.00;21.40;;;;;;;2.50;69.65;99365.69;107938;1259;73963;-63
2023/03/08 01:16:31;;;;;;;34.00;22.30;;;;;;;2.54;69.55;99365.98;107989;1257;72954;-64
2023/03/08 01:19:00;;;;;;;30.60;20.70;;;;;;;2.61;69.67;99363.94;107987;1254;60399;-63
2023/03/08 01:21:29;;;;;;;31.40;20.60;;;;;;;2.69;69.68;99355.69;107973;1254;61126;-64
2023/03/08 01:23:57;;;;;;;30.70;20.90;;;;;;;2.75;69.61;99346.44;107947;1254;74727;-63
2023/03/08 01:26:30;;;;;;;29.00;19.70;;;;;;;2.77;69.58;99346.73;107996;1254;73904;-63
2023/03/08 01:28:59;;;;;;;29.70;20.20;;;;;;;2.78;69.46;99346.23;107953;1254;72740;-63
2023/03/08 01:31:28;;;;;;;28.20;19.80;;;;;;;2.81;69.41;99346.49;107997;1257;61305;-63
2023/03/08 01:34:01;;;;;;;26.90;18.70;;;;;;;2.82;69.47;99336.80;107992;1254;61212;-63
2023/03/08 01:36:30;;;;;;;27.40;18.90;;;;;;;2.82;69.37;99332.13;108051;1254;74887;-63
2023/03/08 01:39:00;;;;;;;32.60;20.60;;;;;;;2.84;69.54;99336.27;107961;1255;72786;-64
2023/03/08 01:41:29;;;;;;;32.80;20.60;;;;;;;2.89;69.45;99338.20;108015;1257;73043;-62
2023/03/08 01:44:02;;;;;;;29.70;19.60;;;;;;;2.96;69.56;99341.77;108013;1255;61228;-62
2023/03/08 01:46:34;;;;;;;29.00;19.20;;;;;;;3.03;69.41;99336.50;108025;1254;61194;-64
2023/03/08 01:49:10;;;;;;;27.60;18.80;;;;;;;3.10;69.47;99340.58;108018;1254;75604;-64
2023/03/08 01:51:50;;;;;;;27.40;18.50;;;;;;;3.17;69.43;99336.52;108041;1254;73568;-63
2023/03/08 01:54:23;;;;;;;26.80;17.80;;;;;;;3.26;69.38;99339.59;107952;1260;72936;-62
2023/03/08 01:56:53;;;;;;;27.40;18.80;;;;;;;3.34;69.47;99336.55;108019;1254;61258;-63
2023/03/08 01:59:22;;;;;;;27.30;18.40;;;;;;;3.42;69.22;99329.34;107875;1253;61174;-63
2023/03/08 02:01:50;;;;;;;28.70;18.30;;;;;;;3.50;69.28;99325.36;107935;1254;74745;-63
2023/03/08 02:04:19;;;;;;;25.20;17.90;;;;;;;3.58;69.11;99328.73;107832;1254;72353;-63
2023/03/08 02:06:51;;;;;;;27.50;18.50;;;;;;;3.65;68.92;99326.15;107830;1256;72741;-63
2023/03/08 02:09:22;;;;;;;24.90;16.90;;;;;;;3.70;68.82;99324.43;107955;1254;61480;-63
2023/03/08 02:11:54;;;;;;;26.10;17.60;;;;;;;3.74;68.66;99319.58;107965;1254;60851;-64
2023/03/08 02:14:27;;;;;;;25.10;18.00;;;;;;;3.77;68.49;99317.20;107879;1255;73859;-63
2023/03/08 02:16:56;;;;;;;27.60;17.90;;;;;;;3.78;68.23;99313.34;107828;1254;72895;-63
2023/03/08 02:19:40;;;;;;;25.60;17.10;;;;;;;3.79;68.08;99310.25;107924;1257;73878;-63
2023/03/08 02:22:10;;;;;;;25.90;18.10;;;;;;;3.79;68.06;99318.07;107963;1256;61485;-63
2023/03/08 02:24:39;;;;;;;23.80;16.40;;;;;;;3.84;68.04;99321.04;107854;1257;59977;-63
2023/03/08 02:27:12;;;;;;;;;;;;;;;3.92;68.02;99309.79;108002;1254;74830;-62
2023/03/08 02:29:41;;;;;;;27.40;16.30;;;;;;;3.98;67.88;99307.61;107978;1255;72483;-63
2023/03/08 02:32:10;;;;;;;25.30;17.50;;;;;;;4.03;67.72;99309.04;107950;1254;73712;-62
2023/03/08 02:34:39;;;;;;;24.20;17.00;;;;;;;4.07;67.64;99313.48;107928;1254;62211;-63
2023/03/08 02:37:08;;;;;;;24.40;17.60;;;;;;;4.10;67.43;99314.10;108107;1254;61231;-65
2023/03/08 02:39:36;;;;;;;23.00;17.10;;;;;;;4.13;67.32;99307.85;107925;1254;75325;-64
2023/03/08 02:42:05;;;;;;;23.70;16.90;;;;;;;4.14;67.13;99306.70;108014;1259;73050;-65
2023/03/08 02:44:35;;;;;;;25.80;16.80;;;;;;;4.13;66.95;99301.72;107942;1254;73500;-63
2023/03/08 02:47:04;;;;;;;23.90;16.20;;;;;;;4.13;66.93;99297.11;108023;1254;62261;-63
2023/03/08 02:49:32;;;;;;;25.50;16.80;;;;;;;4.12;66.85;99293.69;107985;1254;61120;-62
2023/03/08 02:52:03;;;;;;;26.80;17.50;;;;;;;4.12;66.80;99297.95;107844;1255;74060;-63
2023/03/08 02:54:33;;;;;;;24.20;16.90;;;;;;;4.16;66.70;99296.25;107981;1254;72997;-63
2023/03/08 02:57:01;;;;;;;24.30;17.20;;;;;;;4.20;66.62;99297.69;107918;1254;71780;-63
2023/03/08 02:59:30;;;;;;;24.60;16.90;;;;;;;4.24;66.62;99298.43;107982;1257;61566;-63
2023/03/08 03:01:59;;;;;;;24.70;16.70;;;;;;;4.29;66.36;99302.49;107987;1254;61076;-64
2023/03/08 03:04:31;;;;;;;26.50;15.90;;;;;;;4.33;66.32;99306.40;107857;1257;74325;-63
2023/03/08 03:07:00;;;;;;;;;;;;;;;4.37;66.28;99308.03;108029;1257;71198;-63
2023/03/08 03:09:33;;;;;;;23.50;15.80;;;;;;;4.42;66.14;99307.66;107679;1257;73449;-64
2023/03/08 03:12:02;;;;;;;23.90;16.60;;;;;;;4.48;66.00;99308.21;107796;1255;61247;-64
2023/03/08 03:14:36;;;;;;;23.70;16.50;;;;;;;4.53;65.89;99310.86;107974;1254;61595;-64
2023/03/08 03:17:04;;;;;;;24.00;16.80;;;;;;;4.57;65.70;99309.48;107704;1254;75035;-64
2023/03/08 03:19:33;;;;;;;24.30;15.90;;;;;;;4.60;65.28;99311.84;107949;1254;73464;-63
2023/03/08 03:22:06;;;;;;;24.90;15.70;;;;;;;4.62;65.28;99311.13;107919;1254;73293;-63
2023/03/08 03:24:36;;;;;;;23.30;16.20;;;;;;;4.65;64.98;99308.56;107939;1254;61207;-63
2023/03/08 03:27:06;;;;;;;24.30;16.20;;;;;;;4.67;64.77;99308.59;107955;1254;61138;-63
2023/03/08 03:29:37;;;;;;;24.40;16.90;;;;;;;4.70;64.73;99305.34;107862;1257;73899;-63
2023/03/08 03:32:10;;;;;;;24.00;16.20;;;;;;;4.73;64.51;99308.21;108006;1254;72284;-62
2023/03/08 03:34:43;;;;;;;26.50;16.20;;;;;;;4.74;64.26;99306.45;107989;1254;73436;-63
2023/03/08 03:37:12;;;;;;;22.60;15.80;;;;;;;4.75;64.13;99306.34;108064;1254;60877;-63
2023/03/08 03:39:41;;;;;;;22.70;15.80;;;;;;;4.75;64.00;99301.90;108071;1254;60984;-64
2023/03/08 03:42:11;;;;;;;22.90;14.90;;;;;;;4.75;63.73;99294.01;107873;1257;75654;-64
2023/03/08 03:44:44;;;;;;;21.90;15.30;;;;;;;4.73;63.54;99292.66;107964;1256;73688;-63
2023/03/08 03:47:16;;;;;;;23.30;15.60;;;;;;;4.72;63.39;99289.48;107959;1257;72798;-65
2023/03/08 03:49:46;;;;;;;22.40;16.30;;;;;;;4.71;63.38;99283.66;107978;1254;61142;-63
2023/03/08 03:52:16;;;;;;;23.70;15.60;;;;;;;4.69;63.30;99281.10;108012;1257;60982;-67
2023/03/08 03:54:51;;;;;;;22.40;15.70;;;;;;;4.69;63.29;99280.89;107963;1257;75493;-65
2023/03/08 03:57:20;;;;;;;23.90;15.80;;;;;;;4.69;63.13;99278.88;108009;1254;71804;-64
2023/03/08 03:59:49;;;;;;;26.70;16.90;;;;;;;4.67;63.09;99272.77;107987;1254;71297;-63
2023/03/08 04:02:17;;;;;;;25.00;16.20;;;;;;;4.66;63.12;99267.52;108019;1254;61115;-63
2023/03/08 04:04:53;;;;;;;24.30;16.30;;;;;;;4.65;62.96;99260.53;108016;1254;61200;-63
2023/03/08 04:07:24;;;;;;;25.10;16.90;;;;;;;4.62;62.97;99253.95;108048;1254;75582;-63
2023/03/08 04:09:58;;;;;;;23.80;16.10;;;;;;;4.62;63.05;99253.85;108045;1254;71972;-63
2023/03/08 04:12:27;;;;;;;23.20;16.00;;;;;;;4.64;62.99;99251.68;107952;1254;72050;-64
2023/03/08 04:14:56;;;;;;;24.00;16.30;;;;;;;4.64;62.91;99248.63;108021;1254;61193;-63
2023/03/08 04:17:28;;;;;;;23.10;15.80;;;;;;;4.65;62.86;99251.59;108012;1257;61570;-61
2023/03/08 04:19:57;;;;;;;25.80;16.90;;;;;;;4.65;62.82;99243.61;108107;1254;73976;-62
2023/03/08 04:22:33;;;;;;;24.60;16.00;;;;;;;4.64;62.77;99239.59;107992;1254;73114;-64
2023/03/08 04:25:08;;;;;;;24.80;17.30;;;;;;;4.62;62.71;99240.09;108004;1254;72870;-63
2023/03/08 04:27:43;;;;;;;23.60;16.50;;;;;;;4.61;62.69;99232.36;107964;1254;61209;-62
2023/03/08 04:30:13;;;;;;;24.60;16.30;;;;;;;4.61;62.66;99226.34;108024;1254;61225;-62
2023/03/08 04:32:42;;;;;;;25.50;17.60;;;;;;;4.62;62.67;99234.59;107991;1254;74297;-63
2023/03/08 04:35:11;;;;;;;22.40;16.50;;;;;;;4.61;62.74;99232.20;107969;1254;74023;-62
2023/03/08 04:37:42;;;;;;;23.70;16.30;;;;;;;4.62;62.60;99226.07;108008;1254;72041;-62
2023/03/08 04:40:12;;;;;;;23.20;16.10;;;;;;;4.62;62.48;99227.34;104074;1254;5263810;-62
2023/03/08 04:43:01;;;;;;;25.60;17.70;;;;;;;4.61;62.52;99231.19;107984;1254;75583;-64
2023/03/08 04:45:34;;;;;;;25.20;17.20;;;;;;;4.60;62.46;99233.07;107907;1260;72309;-63
2023/03/08 04:48:05;;;;;;;24.30;17.40;;;;;;;4.59;62.43;99231.85;108012;1254;72441;-63
2023/03/08 04:50:38;;;;;;;25.70;17.60;;;;;;;4.54;62.31;99234.45;108018;1254;60971;-65
2023/03/08 04:53:12;;;;;;;30.30;18.30;;;;;;;4.47;62.22;99238.67;108053;1255;61150;-64
2023/03/08 04:55:41;;;;;;;25.60;17.50;;;;;;;4.41;62.39;99238.04;108127;1254;75898;-62
2023/03/08 04:58:10;;;;;;;27.70;18.10;;;;;;;4.40;62.48;99239.80;108141;1254;72905;-64
2023/03/08 05:00:39;;;;;;;25.40;17.30;;;;;;;4.40;62.62;99239.30;108012;1254;73561;-64
2023/03/08 05:03:09;;;;;;;26.90;17.80;;;;;;;4.42;62.68;99235.88;107916;1254;61540;-64
2023/03/08 05:05:37;;;;;;;27.00;18.20;;;;;;;4.41;62.62;99231.33;108078;1254;61561;-65
2023/03/08 05:08:07;;;;;;;25.90;17.30;;;;;;;4.42;62.73;99230.69;107961;1254;76074;-64
2023/03/08 05:10:37;;;;;;;25.20;17.10;;;;;;;4.43;62.66;99231.38;107968;1254;72043;-64
2023/03/08 05:13:08;;;;;;;26.40;17.90;;;;;;;4.48;62.74;99230.85;107968;1257;72866;-63
2023/03/08 05:15:40;;;;;;;26.20;16.70;;;;;;;4.54;62.75;99233.28;107991;1254;61369;-63
2023/03/08 06:18:15;;;;;;;23.30;15.60;;;;;;;5.87;60.08;99188.95;108061;1257;74251;-62
2023/03/08 06:21:14;;;;;;;24.70;16.30;;;;;;;5.97;60.03;99188.52;108074;1254;73655;-63
2023/03/08 06:24:00;;;;;;;21.70;15.50;;;;;;;6.10;59.91;99177.98;107977;1254;73274;-64
2023/03/08 06:26:38;;;;;;;24.00;16.50;;;;;;;6.17;59.58;99174.70;107948;1254;61093;-64
2023/03/08 06:29:11;;;;;;;22.60;16.10;;;;;;;6.25;59.46;99169.20;108005;1254;61214;-66
2023/03/08 06:32:02;;;;;;;24.00;16.30;;;;;;;6.37;59.35;99161.27;107857;1254;76609;-66
2023/03/08 06:34:44;;;;;;;25.50;16.80;;;;;;;6.49;59.08;99158.63;107794;1254;72201;-64
2023/03/08 06:37:33;;;;;;;23.70;15.90;;;;;;;6.60;58.95;99156.52;107871;1254;71635;-65
2023/03/08 06:40:17;;;;;;;23.20;16.30;;;;;;;6.72;58.67;99152.28;107907;1254;61461;-66
2023/03/08 06:43:03;;;;;;;24.60;15.80;;;;;;;6.83;58.46;99154.27;108007;1254;61169;-64
2023/03/08 06:45:55;;;;;;;23.60;15.90;;;;;;;6.95;58.10;99157.99;107966;1257;74914;-64
2023/03/08 06:48:45;;;;;;;20.20;15.10;;;;;;;7.05;57.82;99161.23;107893;1256;73718;-64
2023/03/08 06:51:45;;;;;;;24.80;16.50;;;;;;;7.16;57.57;99167.69;107847;1257;72215;-64
2023/03/08 06:54:36;;;;;;;22.40;15.00;;;;;;;7.25;57.18;99166.08;107800;1254;61225;-64
2023/03/08 06:57:09;;;;;;;20.20;14.60;;;;;;;7.32;56.82;99175.95;107776;1254;61151;-64
2023/03/08 06:59:51;;;;;;;;;;;;;;;7.39;56.67;99170.02;107847;1254;75617;-64
2023/03/08 07:02:38;;;;;;;21.40;15.30;;;;;;;7.49;56.43;99168.46;108001;1254;73923;-64
2023/03/08 07:05:23;;;;;;;21.20;14.00;;;;;;;7.60;56.27;99166.88;107975;1254;72744;-63
2023/03/08 07:08:21;;;;;;;20.70;13.10;;;;;;;7.72;56.04;99165.46;108003;1254;61087;-64
2023/03/08 07:11:23;;;;;;;18.90;14.10;;;;;;;7.84;55.57;99164.45;107978;1254;61176;-64
2023/03/08 07:14:04;;;;;;;19.50;13.80;;;;;;;7.94;55.11;99163.98;108013;1254;75048;-64
2023/03/08 07:16:45;;;;;;;21.40;15.30;;;;;;;8.02;54.54;99159.05;108043;1254;72986;-65
2023/03/08 07:19:33;;;;;;;21.10;14.90;;;;;;;8.08;54.13;99163.85;108041;1254;73302;-64
2023/03/08 07:22:21;;;;;;;20.20;14.90;;;;;;;8.12;53.75;99161.28;108064;1257;60929;-64
2023/03/08 07:25:16;;;;;;;20.80;15.10;;;;;;;8.15;53.49;99154.24;108040;1254;61006;-65
2023/03/08 07:28:16;;;;;;;20.60;15.10;;;;;;;8.22;53.53;99154.52;107981;1254;75205;-65
2023/03/08 07:31:11;;;;;;;22.50;15.30;;;;;;;8.35;53.47;99157.38;108072;1254;74148;-64
2023/03/08 07:34:03;;;;;;;21.20;15.10;;;;;;;8.48;53.27;99163.64;107843;1254;74059;-65
2023/03/08 07:36:52;;;;;;;21.50;15.20;;;;;;;8.59;52.88;99158.56;107840;1257;61227;-64
2023/03/08 07:39:44;;;;;;;19.90;15.90;;;;;;;8.66;52.67;99157.18;107902;1256;61291;-63
2023/03/08 07:42:36;;;;;;;20.90;15.50;;;;;;;8.77;52.42;99147.89;107828;1254;73177;-64
2023/03/08 08:02:21;;;;;;;23.50;16.50;;;;;;;9.33;51.11;99149.16;107836;1254;73243;-65
2023/03/08 08:05:25;;;;;;;22.00;17.00;;;;;;;9.32;50.64;99150.14;108087;1254;73512;-65
2023/03/08 08:08:16;;;;;;;20.50;15.40;;;;;;;9.28;50.84;99146.38;107984;1254;73915;-65
2023/03/08 08:26:27;;;;;;;22.10;15.00;;;;;;;9.75;50.20;99121.59;107685;1254;76811;-64
2023/03/08 08:29:15;;;;;;;19.20;14.80;;;;;;;9.85;50.15;99124.35;108010;1254;61085;-65
2023/03/08 08:32:09;;;;;;;21.30;15.20;;;;;;;9.99;49.86;99120.59;108021;1254;61476;-64
2023/03/08 08:35:05;;;;;;;21.40;15.70;;;;;;;10.11;49.32;99120.84;107987;1254;74027;-65
2023/03/08 08:37:49;;;;;;;19.90;15.50;;;;;;;10.16;49.21;99120.92;108012;1254;72642;-63
2023/03/08 08:40:41;;;;;;;20.60;14.90;;;;;;;10.28;49.05;99121.20;108026;1257;72176;-65
2023/03/08 08:43:35;;;;;;;20.20;14.50;;;;;;;10.41;48.84;99120.90;107809;1254;61093;-66
2023/03/08 08:46:30;;;;;;;19.70;14.80;;;;;;;10.52;48.60;99119.98;108032;1254;61171;-65
2023/03/08 08:49:23;;;;;;;21.70;14.50;;;;;;;10.64;48.36;99121.08;108117;1254;73313;-64
2023/03/08 08:52:15;;;;;;;20.80;15.10;;;;;;;10.75;47.73;99121.21;108077;1254;72920;-66
2023/03/08 08:55:06;;;;;;;20.90;14.80;;;;;;;10.77;47.77;99123.10;108114;1254;71693;-64
2023/03/08 08:57:58;;;;;;;21.00;14.50;;;;;;;10.85;47.49;99119.44;108022;1254;61263;-64
2023/03/08 09:00:49;;;;;;;18.60;13.60;;;;;;;10.95;47.34;99116.80;108055;1254;61234;-64
2023/03/08 09:04:05;;;;;;;16.70;12.90;;;;;;;11.02;46.49;99121.87;107954;1255;76978;-64
2023/03/08 09:07:07;;;;;;;17.80;13.40;;;;;;;11.00;46.62;99118.39;108050;1259;72929;-64
2023/03/08 09:10:04;;;;;;;18.10;13.20;;;;;;;11.01;46.37;99119.68;107687;1256;73637;-65
2023/03/08 09:13:02;;;;;;;18.80;13.30;;;;;;;11.06;46.64;99116.14;108667;1255;59988;-66
2023/03/08 09:15:49;;;;;;;16.60;12.10;;;;;;;11.19;46.60;99111.93;108001;1254;61231;-65
2023/03/08 09:18:31;;;;;;;17.30;13.10;;;;;;;11.25;46.04;99112.36;108102;1254;75512;-64
2023/03/08 09:21:07;;;;;;;19.50;13.80;;;;;;;11.24;45.92;99108.15;108090;1254;72151;-64
2023/03/08 09:23:52;;;;;;;19.10;14.00;;;;;;;11.21;45.80;99108.27;107984;1254;73416;-64
2023/03/08 09:26:53;;;;;;;17.50;12.80;;;;;;;11.22;46.00;99095.35;108055;1254;61207;-65
2023/03/08 09:33:30;;;;;;;19.10;14.80;;;;;;;11.40;45.74;99095.88;107878;1254;73032;-65
2023/03/08 09:36:18;;;;;;;20.10;14.80;;;;;;;11.37;45.46;99092.52;108071;1254;72343;-65
2023/03/08 09:39:12;;;;;;;17.30;13.90;;;;;;;11.23;45.37;99098.34;108065;1254;72931;-63
2023/03/08 09:42:06;;;;;;;20.10;14.10;;;;;;;11.08;45.61;99096.45;108071;1254;61263;-65
2023/03/08 09:45:06;;;;;;;19.00;13.50;;;;;;;10.91;45.86;99095.36;108038;1254;61178;-64
2023/03/08 09:48:18;;;;;;;17.70;12.90;;;;;;;10.82;46.31;99092.15;108068;1254;75534;-63
2023/03/08 09:51:11;;;;;;;18.30;12.90;;;;;;;10.82;46.44;99084.30;107976;1254;73656;-63
2023/03/08 09:57:24;;;;;;;15.90;11.90;;;;;;;10.86;46.31;99079.73;108129;1253;61161;-65
2023/03/08 10:00:28;;;;;;;16.30;11.20;;;;;;;10.80;46.45;99076.27;108038;1259;61221;-65
2023/03/08 10:03:36;;;;;;;17.00;12.00;;;;;;;10.80;46.67;99074.70;108000;1255;75917;-65
2023/03/08 10:07:18;;;;;;;14.80;11.30;;;;;;;10.78;46.57;99071.34;107967;1257;74323;-64
2023/03/08 10:10:04;;;;;;;14.20;10.90;;;;;;;10.75;46.74;99068.81;107429;1262;72490;-64
2023/03/08 10:13:13;;;;;;;15.20;12.20;;;;;;;10.74;46.80;99070.86;107982;1256;59579;-65
2023/03/08 10:16:26;;;;;;;16.00;11.30;;;;;;;10.67;46.85;99077.51;107836;1255;61100;-65
2023/03/08 10:19:27;;;;;;;15.60;10.90;;;;;;;10.55;47.11;99090.84;107970;1255;75646;-63
2023/03/08 10:22:33;;;;;;;16.60;12.30;;;;;;;10.38;47.22;99100.23;108003;1255;73058;-64
2023/03/08 10:25:32;;;;;;;15.90;12.10;;;;;;;10.19;47.67;99117.11;108012;1257;73376;-63
2023/03/08 10:28:28;;;;;;;15.80;11.50;;;;;;;9.99;48.29;99116.73;107932;1256;61211;-64
2023/03/08 10:31:28;;;;;;;13.90;10.20;;;;;;;9.91;48.89;99097.01;107985;1257;61170;-66
2023/03/08 10:34:29;;;;;;;15.90;11.60;;;;;;;9.87;49.34;99092.09;107987;1257;73894;-64
2023/03/08 10:37:18;;;;;;;16.80;12.30;;;;;;;9.85;49.87;99085.92;108014;1257;72660;-64
2023/03/08 10:40:01;;;;;;;16.70;12.00;;;;;;;9.86;50.32;99081.23;108107;1254;72662;-65
2023/03/08 10:43:06;;;;;;;16.70;12.30;;;;;;;9.90;50.71;99085.44;108060;1254;61096;-64
2023/03/08 10:46:11;;;;;;;15.10;11.40;;;;;;;9.93;50.56;99090.09;108015;1253;61280;-64
2023/03/08 10:49:31;;;;;;;16.20;12.40;;;;;;;9.92;50.65;99093.10;108040;1254;73492;-65
2023/03/08 10:52:01;;;;;;;16.50;11.70;;;;;;;9.86;50.42;99095.19;107997;1254;74045;-65
2023/03/08 10:54:29;;;;;;;16.20;11.50;;;;;;;9.82;50.36;99095.79;108049;1254;73016;-65
2023/03/08 10:57:00;;;;;;;15.60;12.00;;;;;;;9.78;50.44;99096.75;108019;1254;61269;-65
2023/03/08 10:59:32;;;;;;;18.60;12.80;;;;;;;9.78;50.52;99084.60;108031;1254;60563;-65
2023/03/08 11:02:21;;;;;;;15.40;11.70;;;;;;;9.84;50.65;99092.14;108053;1254;74068;-65
2023/03/08 11:04:54;;;;;;;15.20;11.60;;;;;;;9.88;50.36;99086.70;108006;1254;72964;-65
2023/03/08 11:07:25;;;;;;;17.80;12.20;;;;;;;9.89;50.28;99086.04;108019;1254;72576;-64
2023/03/08 11:10:25;;;;;;;14.90;11.80;;;;;;;9.92;50.29;99085.52;107943;1254;61081;-65
2023/03/08 11:13:04;;;;;;;16.50;12.70;;;;;;;10.00;50.33;99076.73;107925;1254;61218;-67
2023/03/08 11:15:37;;;;;;;16.10;12.70;;;;;;;10.10;50.30;99065.95;108009;1254;75864;-66
2023/03/08 11:18:31;;;;;;;19.10;12.10;;;;;;;10.17;50.12;99067.98;108055;1254;72478;-64
2023/03/08 11:21:05;;;;;;;16.40;12.40;;;;;;;10.23;49.98;99066.39;107968;1254;73011;-64
2023/03/08 11:24:09;;;;;;;15.60;11.80;;;;;;;10.22;49.85;99066.58;108042;1254;61119;-65
2023/03/08 11:26:50;;;;;;;17.20;13.00;;;;;;;10.17;50.05;99070.48;107974;1254;61163;-65
2023/03/08 11:29:38;;;;;;;17.80;13.30;;;;;;;10.12;50.11;99052.75;108084;1254;73581;-65
2023/03/08 11:32:16;;;;;;;18.30;12.40;;;;;;;10.08;50.19;99048.64;108081;1254;72491;-65
2023/03/08 11:34:56;;;;;;;17.40;12.80;;;;;;;10.10;50.50;99057.36;108009;1254;73869;-64
2023/03/08 11:38:15;;;;;;;17.00;12.80;;;;;;;10.11;50.59;99053.23;108103;1254;61245;-63
2023/03/08 11:41:32;;;;;;;16.60;12.40;;;;;;;10.15;50.78;99050.98;107822;1254;61041;-66
2023/03/08 11:44:43;;;;;;;16.10;11.70;;;;;;;10.20;50.76;99050.87;108047;1256;74187;-65
2023/03/08 11:47:52;;;;;;;15.70;11.80;;;;;;;10.28;50.60;99054.86;108102;1256;73439;-64
2023/03/08 11:50:34;;;;;;;16.40;11.90;;;;;;;10.34;50.51;99055.30;107973;1256;73164;-63
2023/03/08 11:53:08;;;;;;;17.20;12.30;;;;;;;10.42;50.36;99050.80;107833;1257;61204;-65
2023/03/08 11:55:36;;;;;;;16.70;12.40;;;;;;;10.48;50.16;99048.23;107962;1256;61425;-63
2023/03/08 11:58:26;;;;;;;16.70;11.80;;;;;;;10.54;50.04;99039.16;108061;1256;73812;-64
2023/03/08 12:00:59;;;;;;;16.10;11.70;;;;;;;10.62;49.90;99038.49;108069;1256;73710;-66
2023/03/08 12:03:40;;;;;;;16.60;12.00;;;;;;;10.70;49.73;99040.16;108021;1256;72914;-65
2023/03/08 12:06:14;;;;;;;14.90;11.10;;;;;;;10.79;49.41;99040.49;108068;1257;61342;-64
2023/03/08 12:09:04;;;;;;;15.90;11.20;;;;;;;10.89;49.42;99035.71;107997;1256;61087;-64
2023/03/08 12:11:46;;;;;;;16.00;11.80;;;;;;;10.99;49.12;99037.28;108031;1255;75454;-66
2023/03/08 12:14:22;;;;;;;15.60;11.90;;;;;;;11.05;48.86;99028.42;107995;1255;73698;-64
2023/03/08 12:17:00;;;;;;;13.70;10.40;;;;;;;11.10;48.90;99026.21;107850;1259;73891;-63
2023/03/08 12:19:42;;;;;;;15.80;11.50;;;;;;;11.23;48.80;99035.38;107771;1255;61848;-66
2023/03/08 12:22:22;;;;;;;16.20;11.80;;;;;;;11.35;48.29;99042.40;108014;1255;61289;-64
2023/03/08 12:25:24;;;;;;;16.90;11.30;;;;;;;11.45;47.88;99043.84;107993;1256;75927;-65
2023/03/08 12:27:55;;;;;;;14.00;11.00;;;;;;;11.52;47.68;99035.95;107971;1256;74322;-66
2023/03/08 12:30:36;;;;;;;15.90;11.70;;;;;;;11.59;47.64;99032.98;107973;1257;73898;-63
2023/03/08 12:33:05;;;;;;;18.20;12.40;;;;;;;11.70;47.46;99034.92;108024;1254;61180;-64
2023/03/08 12:35:35;;;;;;;17.70;11.70;;;;;;;11.75;47.18;99033.15;108085;1254;61081;-64
2023/03/08 12:38:08;;;;;;;13.90;11.00;;;;;;;11.78;47.28;99040.09;108112;1254;75112;-64
2023/03/08 12:40:43;;;;;;;16.10;11.80;;;;;;;11.81;47.12;99038.16;108102;1254;71869;-65
2023/03/08 12:43:19;;;;;;;14.10;10.70;;;;;;;11.80;47.17;99043.58;108065;1258;72866;-63
2023/03/08 12:46:04;;;;;;;14.30;11.00;;;;;;;11.81;47.18;99055.66;108041;1258;61232;-65
2023/03/08 12:48:43;;;;;;;14.20;10.00;;;;;;;11.82;47.32;99053.44;108032;1257;61160;-63
2023/03/08 12:51:11;;;;;;;14.00;10.60;;;;;;;11.87;47.12;99056.08;108098;1254;74637;-63
2023/03/08 12:53:50;;;;;;;15.60;11.40;;;;;;;11.85;47.08;99062.00;108074;1254;73638;-64
2023/03/08 12:56:24;;;;;;;15.10;11.40;;;;;;;11.78;47.28;99052.63;107964;1254;71761;-64
2023/03/08 12:58:58;;;;;;;14.10;10.70;;;;;;;11.73;47.52;99055.22;107998;1254;61205;-64
2023/03/08 13:01:29;;;;;;;12.50;9.40;;;;;;;11.76;47.61;99045.96;108058;1254;61331;-64
2023/03/08 13:03:59;;;;;;;13.70;11.00;;;;;;;11.83;47.57;99045.94;108032;1254;75826;-63
2023/03/08 13:06:36;;;;;;;13.80;10.10;;;;;;;11.93;47.63;99041.71;107980;1254;72144;-63
2023/03/08 13:09:12;;;;;;;13.00;10.00;;;;;;;12.07;47.34;99048.45;107976;1254;72854;-64
2023/03/08 13:11:44;;;;;;;13.10;9.60;;;;;;;12.10;47.16;99046.19;107926;1254;61408;-63
2023/03/08 13:14:27;;;;;;;13.00;9.80;;;;;;;12.07;47.24;99041.72;108016;1255;61556;-65
2023/03/08 13:16:56;;;;;;;12.90;9.30;;;;;;;11.99;47.30;99035.58;107983;1254;75917;-65
2023/03/08 13:19:26;;;;;;;11.80;9.20;;;;;;;11.93;47.49;99042.40;107918;1254;73989;-65
2023/03/08 13:22:01;;;;;;;11.00;9.10;;;;;;;11.95;47.68;99044.46;108058;1254;73068;-65
2023/03/08 13:25:00;;;;;;;12.20;9.20;;;;;;;11.98;47.63;99041.71;107978;1253;61237;-65
2023/03/08 13:27:48;;;;;;;13.10;9.60;;;;;;;12.00;47.50;99047.66;108068;1254;61094;-64
2023/03/08 13:30:22;;;;;;;10.90;8.20;;;;;;;11.99;47.55;99042.66;108022;1254;74969;-65
2023/03/08 13:32:52;;;;;;;11.60;8.70;;;;;;;12.02;47.60;99045.25;107925;1254;73012;-65
2023/03/08 13:35:21;;;;;;;11.00;8.30;;;;;;;12.03;47.56;99046.25;107990;1254;71738;-65
2023/03/08 13:37:55;;;;;;;10.40;7.50;;;;;;;12.01;47.54;99052.09;108047;1254;61199;-64
2023/03/08 13:40:24;;;;;;;10.00;8.00;;;;;;;11.93;47.52;99055.05;108276;1254;61135;-65
2023/03/08 13:43:01;;;;;;;10.40;7.20;;;;;;;11.86;47.69;99058.47;108014;1254;73911;-65
2023/03/08 13:45:31;;;;;;;9.30;7.20;;;;;;;11.84;47.68;99060.06;107956;1254;73407;-64
2023/03/08 13:48:02;;;;;;;11.00;7.40;;;;;;;11.79;47.70;99051.96;107932;1254;72726;-64
2023/03/08 13:50:36;;;;;;;9.20;6.50;;;;;;;11.77;47.65;99055.46;107830;1254;61344;-64
2023/03/08 13:53:35;;;;;;;8.70;6.90;;;;;;;11.78;47.59;99052.52;107989;1254;61088;-65